Airfield :
LOGIN :

Register | Disclaimer

   EN    FR    IT 

 










Legend :    VFR   Marginal VFR   IFR   Intensive IFR   Very Intensive IFR
Visi :
Ceiling :
>= 8 km
>= 3000ft
5 to 8 km
1000 to 3000 ft
1500m to 5 km
500 to 1000 ft
800 to 1500m
200 to 500 ft
< 800m
< 200 ft
Symbols :   Thunderstorms  Fog  Heavy snow  Heavy precipitations  Wind > 20 kt
SIGMETs :     Misc.  Thunderstorms  Icing  Turbulence  Mountain Waves  Volcanic Ashes







- Airport Elevation : 681 ft
- IATA code : LBA
- Download approach charts


EGNM - Leeds Bradford

CURRENT METAR :
  • 251820Z 35012KT 9999 FEW015 SCT030TCU 05/M01 Q1015

EXPIRED METARs :
  • 251750Z 35014KT 9999 FEW015 SCT030TCU 05/M01 Q1014
  • 251720Z 02011KT 360V060 9999 VCSH FEW015CB SCT030TCU 06/00 Q1014
  • 251650Z 03008KT 350V080 9999 VCSH SCT030CB 06/01 Q1014
  • 251620Z 36009KT 320V040 9999 VCSH SCT016CB 06/01 Q1013
  • 251550Z 36011G23KT 300V070 9999 -SHRA SCT010CB 06/02 Q1014
  • 251520Z 03010KT 350V070 9999 4000E -SHRA SCT010CB 04/01 Q1013

TAF TAF EGNM
Valid from the 25 at 18:00 until the 26 at 18:00 UTC


251654Z 2518/2618 34009KT 9999 SCT040
TEMPO 2518/2522 8000 -SHRA
PROB30
TEMPO 2518/2521 SHRAGS
PROB30
TEMPO 2612/2617 7000 -SHRA
ATIS : +44 113 250 9696 (x2489)
No reported NOTAMs for that airfield.



MET'MAP, your aeronautical weather chart ! - Copyright ORBIFLY December 2007 - Disclaimer

ORBIFLY MET'MAP TEAM :

Programming & Development : Alexandra Zaïnal
Concept & Development : Baudouin d'Aumeries
Co-Development & Prog : Marc-Olivier Méhu
Technical & hardware support : Manuel Goepfert

Contact : metmap@orbifly.com




SOURCES & CREDITS :

   NOAA